KLVJ

Pearland Regional Airport

Houston, Texas, USA
METAR KLVJ 172053Z AUTO 00000KT 7SM BKN047 BKN055 18/14 A3006 RMK AO2 SLP178 T01780139 56016
Observed Flight Rules
Dec-17 @ 20:53 UTC (23 minutes ago) Visual Flight Rules
Wind Visibility Clouds
Calm 7 miles
  • Broken at 4,700' AGL
  • Broken at 5,500' AGL
Temperatures Readings
Current 18°C / 64°F
Dewpoint 14°C / 57°F
Humidity 78%
Altimeter 30.06" Hg
Pressure 1017.8 hPa
Elevation 12
METAR KLVJ 172053Z AUTO 00000KT 7SM BKN047 BKN055 18/14 A3006 RMK AO2 SLP178 T01780139 56016
Observed Flight Rules
Dec-17 @ 20:53 UTC
(23 minutes ago)
VFR
Wind Visibility
Calm 7 miles
Clouds
  • Broken at 4,700' AGL
  • Broken at 5,500' AGL
Temperature Dewpoint
18°C / 64°F 14°C / 57°F
Humidity Altimeter Pressure
78% 30.06" Hg 1017.8 hPa